sensor_id;sensor_type;location;lat;lon;timestamp;temperature;humidity
8953;DHT22;4511;50.890;8.054;2023-06-01T00:02:14;16.20;99.50
8953;DHT22;4511;50.890;8.054;2023-06-01T00:04:42;16.20;99.90
8953;DHT22;4511;50.890;8.054;2023-06-01T00:07:09;16.10;99.90
8953;DHT22;4511;50.890;8.054;2023-06-01T00:09:37;16.10;99.90
8953;DHT22;4511;50.890;8.054;2023-06-01T00:12:04;16.10;99.90
8953;DHT22;4511;50.890;8.054;2023-06-01T00:14:31;16.00;99.90
8953;DHT22;4511;50.890;8.054;2023-06-01T00:16:58;16.00;99.90
8953;DHT22;4511;50.890;8.054;2023-06-01T00:19:25;15.90;99.90
8953;DHT22;4511;50.890;8.054;2023-06-01T00:21:54;15.80;99.90
8953;DHT22;4511;50.890;8.054;2023-06-01T00:24:21;15.90;99.90
8953;DHT22;4511;50.890;8.054;2023-06-01T00:26:48;15.80;99.90
8953;DHT22;4511;50.890;8.054;2023-06-01T00:29:15;15.80;99.90
8953;DHT22;4511;50.890;8.054;2023-06-01T00:31:42;15.60;99.90
8953;DHT22;4511;50.890;8.054;2023-06-01T00:34:10;15.50;99.90
8953;DHT22;4511;50.890;8.054;2023-06-01T00:36:37;15.50;99.90
8953;DHT22;4511;50.890;8.054;2023-06-01T00:39:05;15.40;99.90
8953;DHT22;4511;50.890;8.054;2023-06-01T00:41:32;15.30;99.90
8953;DHT22;4511;50.890;8.054;2023-06-01T00:43:59;15.30;99.90
8953;DHT22;4511;50.890;8.054;2023-06-01T00:46:27;15.20;99.90
8953;DHT22;4511;50.890;8.054;2023-06-01T00:48:54;15.20;99.90
8953;DHT22;4511;50.890;8.054;2023-06-01T00:51:21;15.10;99.90
8953;DHT22;4511;50.890;8.054;2023-06-01T00:53:48;15.00;99.90
8953;DHT22;4511;50.890;8.054;2023-06-01T00:56:16;15.10;99.90
8953;DHT22;4511;50.890;8.054;2023-06-01T00:58:44;15.10;99.90
8953;DHT22;4511;50.890;8.054;2023-06-01T01:01:10;15.00;99.90
8953;DHT22;4511;50.890;8.054;2023-06-01T01:03:44;15.10;99.90
8953;DHT22;4511;50.890;8.054;2023-06-01T01:06:25;15.10;99.90
8953;DHT22;4511;50.890;8.054;2023-06-01T01:09:08;15.00;99.90
8953;DHT22;4511;50.890;8.054;2023-06-01T01:11:41;14.90;99.90
8953;DHT22;4511;50.890;8.054;2023-06-01T01:14:14;14.80;99.90
8953;DHT22;4511;50.890;8.054;2023-06-01T01:16:45;14.90;99.90
8953;DHT22;4511;50.890;8.054;2023-06-01T01:19:28;14.90;99.90
8953;DHT22;4511;50.890;8.054;2023-06-01T01:22:07;14.80;99.90
8953;DHT22;4511;50.890;8.054;2023-06-01T01:24:45;14.80;99.90
8953;DHT22;4511;50.890;8.054;2023-06-01T01:27:23;14.70;99.90
8953;DHT22;4511;50.890;8.054;2023-06-01T01:29:54;14.70;99.90
8953;DHT22;4511;50.890;8.054;2023-06-01T01:32:23;14.60;99.90
8953;DHT22;4511;50.890;8.054;2023-06-01T01:34:53;14.60;99.90
8953;DHT22;4511;50.890;8.054;2023-06-01T01:37:22;14.60;99.90
8953;DHT22;4511;50.890;8.054;2023-06-01T01:39:49;14.60;99.90
8953;DHT22;4511;50.890;8.054;2023-06-01T01:42:16;14.60;99.90
8953;DHT22;4511;50.890;8.054;2023-06-01T01:44:43;14.50;99.90
8953;DHT22;4511;50.890;8.054;2023-06-01T01:47:17;14.50;99.90
8953;DHT22;4511;50.890;8.054;2023-06-01T01:49:49;14.50;99.90
8953;DHT22;4511;50.890;8.054;2023-06-01T01:52:25;14.20;99.90
8953;DHT22;4511;50.890;8.054;2023-06-01T01:54:52;14.10;99.90
8953;DHT22;4511;50.890;8.054;2023-06-01T01:57:21;14.20;99.90
8953;DHT22;4511;50.890;8.054;2023-06-01T01:59:49;14.20;99.90
8953;DHT22;4511;50.890;8.054;2023-06-01T02:02:18;14.20;99.90
8953;DHT22;4511;50.890;8.054;2023-06-01T02:04:45;14.30;99.90
8953;DHT22;4511;50.890;8.054;2023-06-01T02:07:12;14.20;99.90
8953;DHT22;4511;50.890;8.054;2023-06-01T02:09:39;14.30;99.90
8953;DHT22;4511;50.890;8.054;2023-06-01T02:12:07;14.20;99.90
8953;DHT22;4511;50.890;8.054;2023-06-01T02:14:35;14.30;99.90
8953;DHT22;4511;50.890;8.054;2023-06-01T02:17:01;14.20;99.90
8953;DHT22;4511;50.890;8.054;2023-06-01T02:19:29;14.00;99.90
8953;DHT22;4511;50.890;8.054;2023-06-01T02:21:56;13.90;99.90
8953;DHT22;4511;50.890;8.054;2023-06-01T02:24:23;13.70;99.90
8953;DHT22;4511;50.890;8.054;2023-06-01T02:26:50;13.70;99.90
8953;DHT22;4511;50.890;8.054;2023-06-01T02:29:19;13.70;99.90
8953;DHT22;4511;50.890;8.054;2023-06-01T02:31:47;13.70;99.90
8953;DHT22;4511;50.890;8.054;2023-06-01T02:34:14;13.70;99.90
8953;DHT22;4511;50.890;8.054;2023-06-01T02:36:43;13.60;99.90
8953;DHT22;4511;50.890;8.054;2023-06-01T02:39:10;13.60;99.90
8953;DHT22;4511;50.890;8.054;2023-06-01T02:41:37;13.60;99.90
8953;DHT22;4511;50.890;8.054;2023-06-01T02:44:03;13.50;99.90
8953;DHT22;4511;50.890;8.054;2023-06-01T02:46:30;13.50;99.90
8953;DHT22;4511;50.890;8.054;2023-06-01T02:48:57;13.60;99.90
8953;DHT22;4511;50.890;8.054;2023-06-01T02:51:24;13.40;99.90
8953;DHT22;4511;50.890;8.054;2023-06-01T02:53:52;13.30;99.90
8953;DHT22;4511;50.890;8.054;2023-06-01T02:56:19;13.30;99.90
8953;DHT22;4511;50.890;8.054;2023-06-01T02:58:47;13.40;99.90
8953;DHT22;4511;50.890;8.054;2023-06-01T03:01:13;13.30;99.90
8953;DHT22;4511;50.890;8.054;2023-06-01T03:03:41;13.20;99.90
8953;DHT22;4511;50.890;8.054;2023-06-01T03:06:08;13.30;99.90
8953;DHT22;4511;50.890;8.054;2023-06-01T03:08:35;13.30;99.90
8953;DHT22;4511;50.890;8.054;2023-06-01T03:11:03;13.20;99.90
8953;DHT22;4511;50.890;8.054;2023-06-01T03:13:30;13.20;99.90
8953;DHT22;4511;50.890;8.054;2023-06-01T03:15:57;13.30;99.90
8953;DHT22;4511;50.890;8.054;2023-06-01T03:18:24;13.30;99.90
8953;DHT22;4511;50.890;8.054;2023-06-01T03:20:50;13.30;99.90
8953;DHT22;4511;50.890;8.054;2023-06-01T03:23:18;13.30;99.90
8953;DHT22;4511;50.890;8.054;2023-06-01T03:25:44;13.20;99.90
8953;DHT22;4511;50.890;8.054;2023-06-01T03:28:12;13.30;99.90
8953;DHT22;4511;50.890;8.054;2023-06-01T03:30:39;13.20;99.90
8953;DHT22;4511;50.890;8.054;2023-06-01T03:33:07;13.10;99.90
8953;DHT22;4511;50.890;8.054;2023-06-01T03:35:34;13.00;99.90
8953;DHT22;4511;50.890;8.054;2023-06-01T03:38:01;13.00;99.90
8953;DHT22;4511;50.890;8.054;2023-06-01T03:40:28;13.00;99.90
8953;DHT22;4511;50.890;8.054;2023-06-01T03:42:54;13.10;99.90
8953;DHT22;4511;50.890;8.054;2023-06-01T03:45:23;13.10;99.90
8953;DHT22;4511;50.890;8.054;2023-06-01T03:47:49;13.10;99.90
8953;DHT22;4511;50.890;8.054;2023-06-01T03:50:16;13.10;99.90
8953;DHT22;4511;50.890;8.054;2023-06-01T03:52:43;13.00;99.90
8953;DHT22;4511;50.890;8.054;2023-06-01T03:55:10;13.00;99.90
8953;DHT22;4511;50.890;8.054;2023-06-01T03:57:39;13.00;99.90
8953;DHT22;4511;50.890;8.054;2023-06-01T04:00:07;13.00;99.90
8953;DHT22;4511;50.890;8.054;2023-06-01T04:02:47;13.10;99.90
8953;DHT22;4511;50.890;8.054;2023-06-01T04:05:15;13.00;99.90
8953;DHT22;4511;50.890;8.054;2023-06-01T04:07:43;12.90;99.90
8953;DHT22;4511;50.890;8.054;2023-06-01T04:10:10;12.90;99.90
8953;DHT22;4511;50.890;8.054;2023-06-01T04:12:39;12.90;99.90
8953;DHT22;4511;50.890;8.054;2023-06-01T04:15:08;12.90;99.90
8953;DHT22;4511;50.890;8.054;2023-06-01T04:17:36;12.90;99.90
8953;DHT22;4511;50.890;8.054;2023-06-01T04:20:06;12.90;99.90
8953;DHT22;4511;50.890;8.054;2023-06-01T04:22:34;13.00;99.90
8953;DHT22;4511;50.890;8.054;2023-06-01T04:25:01;13.10;99.90
8953;DHT22;4511;50.890;8.054;2023-06-01T04:27:28;13.20;99.90
8953;DHT22;4511;50.890;8.054;2023-06-01T04:29:55;13.30;99.90
8953;DHT22;4511;50.890;8.054;2023-06-01T04:32:24;13.20;99.90
8953;DHT22;4511;50.890;8.054;2023-06-01T04:34:51;13.20;99.90
8953;DHT22;4511;50.890;8.054;2023-06-01T04:37:19;13.30;99.90
8953;DHT22;4511;50.890;8.054;2023-06-01T04:39:46;13.40;99.90
8953;DHT22;4511;50.890;8.054;2023-06-01T04:42:15;13.20;99.90
8953;DHT22;4511;50.890;8.054;2023-06-01T04:44:44;13.00;99.90
8953;DHT22;4511;50.890;8.054;2023-06-01T04:47:15;12.80;99.90
8953;DHT22;4511;50.890;8.054;2023-06-01T04:49:42;12.80;99.90
8953;DHT22;4511;50.890;8.054;2023-06-01T04:52:09;12.90;99.90
8953;DHT22;4511;50.890;8.054;2023-06-01T04:54:39;13.10;99.90
8953;DHT22;4511;50.890;8.054;2023-06-01T04:57:06;13.20;99.90
8953;DHT22;4511;50.890;8.054;2023-06-01T04:59:33;13.30;99.90
8953;DHT22;4511;50.890;8.054;2023-06-01T05:02:02;13.40;99.90
8953;DHT22;4511;50.890;8.054;2023-06-01T05:04:28;13.50;99.90
8953;DHT22;4511;50.890;8.054;2023-06-01T05:06:56;13.60;99.90
8953;DHT22;4511;50.890;8.054;2023-06-01T05:09:22;13.90;99.90
8953;DHT22;4511;50.890;8.054;2023-06-01T05:11:52;14.00;99.90
8953;DHT22;4511;50.890;8.054;2023-06-01T05:14:18;14.00;99.90
8953;DHT22;4511;50.890;8.054;2023-06-01T05:16:45;13.90;99.90
8953;DHT22;4511;50.890;8.054;2023-06-01T05:19:14;13.90;99.90
8953;DHT22;4511;50.890;8.054;2023-06-01T05:21:42;13.90;99.90
8953;DHT22;4511;50.890;8.054;2023-06-01T05:24:09;13.80;99.90
8953;DHT22;4511;50.890;8.054;2023-06-01T05:26:36;13.80;99.90
8953;DHT22;4511;50.890;8.054;2023-06-01T05:29:04;13.80;99.90
8953;DHT22;4511;50.890;8.054;2023-06-01T05:31:30;13.80;99.90
8953;DHT22;4511;50.890;8.054;2023-06-01T05:33:58;13.90;99.90
8953;DHT22;4511;50.890;8.054;2023-06-01T05:36:24;14.00;99.90
8953;DHT22;4511;50.890;8.054;2023-06-01T05:38:52;14.10;99.90
8953;DHT22;4511;50.890;8.054;2023-06-01T05:41:19;14.10;99.90
8953;DHT22;4511;50.890;8.054;2023-06-01T05:43:46;14.20;99.90
8953;DHT22;4511;50.890;8.054;2023-06-01T05:46:14;14.30;99.90
8953;DHT22;4511;50.890;8.054;2023-06-01T05:48:41;14.50;99.90
8953;DHT22;4511;50.890;8.054;2023-06-01T05:51:08;14.60;99.90
8953;DHT22;4511;50.890;8.054;2023-06-01T05:53:34;14.70;99.90
8953;DHT22;4511;50.890;8.054;2023-06-01T05:56:01;14.80;99.90
8953;DHT22;4511;50.890;8.054;2023-06-01T05:58:28;14.90;99.90
8953;DHT22;4511;50.890;8.054;2023-06-01T06:00:55;15.00;99.90
8953;DHT22;4511;50.890;8.054;2023-06-01T06:03:23;15.10;99.90
8953;DHT22;4511;50.890;8.054;2023-06-01T06:08:17;15.30;99.90
8953;DHT22;4511;50.890;8.054;2023-06-01T06:10:44;15.40;99.90
8953;DHT22;4511;50.890;8.054;2023-06-01T06:13:11;15.50;99.90
8953;DHT22;4511;50.890;8.054;2023-06-01T06:15:38;15.50;99.90
8953;DHT22;4511;50.890;8.054;2023-06-01T06:18:05;15.60;99.90
8953;DHT22;4511;50.890;8.054;2023-06-01T06:20:33;15.70;99.90
8953;DHT22;4511;50.890;8.054;2023-06-01T06:22:59;15.90;99.90
8953;DHT22;4511;50.890;8.054;2023-06-01T06:25:26;15.90;99.90
8953;DHT22;4511;50.890;8.054;2023-06-01T06:27:53;16.00;99.90
8953;DHT22;4511;50.890;8.054;2023-06-01T06:30:20;16.10;99.90
8953;DHT22;4511;50.890;8.054;2023-06-01T06:32:47;16.20;99.90
8953;DHT22;4511;50.890;8.054;2023-06-01T06:35:14;16.30;99.90
8953;DHT22;4511;50.890;8.054;2023-06-01T06:37:43;16.30;99.90
8953;DHT22;4511;50.890;8.054;2023-06-01T06:40:10;16.40;99.90
8953;DHT22;4511;50.890;8.054;2023-06-01T06:42:37;16.50;99.90
8953;DHT22;4511;50.890;8.054;2023-06-01T06:45:05;16.60;99.90
8953;DHT22;4511;50.890;8.054;2023-06-01T06:47:32;16.60;99.90
8953;DHT22;4511;50.890;8.054;2023-06-01T06:49:59;16.70;99.90
8953;DHT22;4511;50.890;8.054;2023-06-01T06:52:26;16.70;99.90
8953;DHT22;4511;50.890;8.054;2023-06-01T06:54:54;16.90;99.90
8953;DHT22;4511;50.890;8.054;2023-06-01T06:57:21;17.00;99.90
8953;DHT22;4511;50.890;8.054;2023-06-01T07:02:15;17.10;99.90
8953;DHT22;4511;50.890;8.054;2023-06-01T07:04:42;17.20;99.90
8953;DHT22;4511;50.890;8.054;2023-06-01T07:07:09;17.30;99.90
8953;DHT22;4511;50.890;8.054;2023-06-01T07:09:35;17.40;99.90
8953;DHT22;4511;50.890;8.054;2023-06-01T07:12:04;17.40;99.90
8953;DHT22;4511;50.890;8.054;2023-06-01T07:14:31;17.50;99.90
8953;DHT22;4511;50.890;8.054;2023-06-01T07:16:59;17.60;99.90
8953;DHT22;4511;50.890;8.054;2023-06-01T07:19:26;17.70;99.90
8953;DHT22;4511;50.890;8.054;2023-06-01T07:21:58;17.80;99.90
8953;DHT22;4511;50.890;8.054;2023-06-01T07:24:25;17.80;99.90
8953;DHT22;4511;50.890;8.054;2023-06-01T07:26:54;17.90;99.90
8953;DHT22;4511;50.890;8.054;2023-06-01T07:29:24;18.00;99.90
8953;DHT22;4511;50.890;8.054;2023-06-01T07:31:53;18.10;99.90
8953;DHT22;4511;50.890;8.054;2023-06-01T07:34:25;18.30;99.90
8953;DHT22;4511;50.890;8.054;2023-06-01T07:36:59;18.30;99.90
8953;DHT22;4511;50.890;8.054;2023-06-01T07:39:34;18.40;99.90
8953;DHT22;4511;50.890;8.054;2023-06-01T07:42:01;18.50;99.90
8953;DHT22;4511;50.890;8.054;2023-06-01T07:44:29;18.60;99.90
8953;DHT22;4511;50.890;8.054;2023-06-01T07:46:56;18.60;99.90
8953;DHT22;4511;50.890;8.054;2023-06-01T07:49:22;18.70;99.90
8953;DHT22;4511;50.890;8.054;2023-06-01T07:51:49;18.80;99.90
8953;DHT22;4511;50.890;8.054;2023-06-01T07:54:17;18.90;99.90
8953;DHT22;4511;50.890;8.054;2023-06-01T07:56:44;19.00;99.90
8953;DHT22;4511;50.890;8.054;2023-06-01T07:59:12;19.10;99.90
8953;DHT22;4511;50.890;8.054;2023-06-01T08:01:41;19.10;99.90
8953;DHT22;4511;50.890;8.054;2023-06-01T08:04:08;19.10;99.90
8953;DHT22;4511;50.890;8.054;2023-06-01T08:06:36;19.20;99.90
8953;DHT22;4511;50.890;8.054;2023-06-01T08:09:03;19.30;99.90
8953;DHT22;4511;50.890;8.054;2023-06-01T08:11:31;19.30;99.90
8953;DHT22;4511;50.890;8.054;2023-06-01T08:13:58;19.40;99.90
8953;DHT22;4511;50.890;8.054;2023-06-01T08:16:27;19.50;99.90
8953;DHT22;4511;50.890;8.054;2023-06-01T08:18:55;19.60;99.90
8953;DHT22;4511;50.890;8.054;2023-06-01T08:21:22;19.60;99.90
8953;DHT22;4511;50.890;8.054;2023-06-01T08:23:49;19.70;99.90
8953;DHT22;4511;50.890;8.054;2023-06-01T08:26:16;19.70;99.90
8953;DHT22;4511;50.890;8.054;2023-06-01T08:28:44;19.80;99.90
8953;DHT22;4511;50.890;8.054;2023-06-01T08:31:17;20.00;99.90
8953;DHT22;4511;50.890;8.054;2023-06-01T08:33:44;20.00;99.90
8953;DHT22;4511;50.890;8.054;2023-06-01T08:36:12;20.10;99.90
8953;DHT22;4511;50.890;8.054;2023-06-01T08:38:39;20.20;99.90
8953;DHT22;4511;50.890;8.054;2023-06-01T08:41:11;20.40;99.90
8953;DHT22;4511;50.890;8.054;2023-06-01T08:43:40;20.30;99.90
8953;DHT22;4511;50.890;8.054;2023-06-01T08:46:08;20.40;99.90
8953;DHT22;4511;50.890;8.054;2023-06-01T08:48:37;20.50;99.90
8953;DHT22;4511;50.890;8.054;2023-06-01T08:51:05;20.40;99.90
8953;DHT22;4511;50.890;8.054;2023-06-01T08:53:33;20.50;99.90
8953;DHT22;4511;50.890;8.054;2023-06-01T08:56:01;20.50;99.90
8953;DHT22;4511;50.890;8.054;2023-06-01T08:58:29;20.70;99.90
8953;DHT22;4511;50.890;8.054;2023-06-01T09:00:56;20.80;99.90
8953;DHT22;4511;50.890;8.054;2023-06-01T09:03:24;20.90;99.90
8953;DHT22;4511;50.890;8.054;2023-06-01T09:05:51;21.00;99.90
8953;DHT22;4511;50.890;8.054;2023-06-01T09:08:18;21.00;99.90
8953;DHT22;4511;50.890;8.054;2023-06-01T09:10:48;21.00;99.50
8953;DHT22;4511;50.890;8.054;2023-06-01T09:13:30;21.10;98.10
8953;DHT22;4511;50.890;8.054;2023-06-01T09:15:58;21.20;95.30
8953;DHT22;4511;50.890;8.054;2023-06-01T09:18:24;21.30;94.70
8953;DHT22;4511;50.890;8.054;2023-06-01T09:20:51;21.40;96.20
8953;DHT22;4511;50.890;8.054;2023-06-01T09:23:23;21.50;94.60
8953;DHT22;4511;50.890;8.054;2023-06-01T09:26:05;21.60;94.70
8953;DHT22;4511;50.890;8.054;2023-06-01T09:28:54;21.70;92.80
8953;DHT22;4511;50.890;8.054;2023-06-01T09:31:38;21.80;93.20
8953;DHT22;4511;50.890;8.054;2023-06-01T09:34:07;21.80;92.60
8953;DHT22;4511;50.890;8.054;2023-06-01T09:36:35;21.90;92.40
8953;DHT22;4511;50.890;8.054;2023-06-01T09:39:03;22.00;90.10
8953;DHT22;4511;50.890;8.054;2023-06-01T09:41:45;22.10;88.20
8953;DHT22;4511;50.890;8.054;2023-06-01T09:44:14;22.10;90.80
8953;DHT22;4511;50.890;8.054;2023-06-01T09:46:47;21.90;85.40
8953;DHT22;4511;50.890;8.054;2023-06-01T09:49:19;21.90;87.00
8953;DHT22;4511;50.890;8.054;2023-06-01T09:51:47;22.20;87.60
8953;DHT22;4511;50.890;8.054;2023-06-01T09:54:25;22.50;85.90
8953;DHT22;4511;50.890;8.054;2023-06-01T09:56:54;22.60;74.40
8953;DHT22;4511;50.890;8.054;2023-06-01T09:59:21;22.70;71.30
8953;DHT22;4511;50.890;8.054;2023-06-01T10:01:50;22.70;68.90
8953;DHT22;4511;50.890;8.054;2023-06-01T10:04:20;22.70;69.00
8953;DHT22;4511;50.890;8.054;2023-06-01T10:06:49;22.90;67.30
8953;DHT22;4511;50.890;8.054;2023-06-01T10:09:18;22.80;66.10
8953;DHT22;4511;50.890;8.054;2023-06-01T10:11:47;22.90;59.70
8953;DHT22;4511;50.890;8.054;2023-06-01T10:14:16;23.10;62.00
8953;DHT22;4511;50.890;8.054;2023-06-01T10:16:43;23.20;63.10
8953;DHT22;4511;50.890;8.054;2023-06-01T10:19:11;23.50;56.10
8953;DHT22;4511;50.890;8.054;2023-06-01T10:21:38;23.70;99.90
8953;DHT22;4511;50.890;8.054;2023-06-01T10:24:07;23.80;99.90
8953;DHT22;4511;50.890;8.054;2023-06-01T10:26:39;24.10;99.90
8953;DHT22;4511;50.890;8.054;2023-06-01T10:29:08;24.30;99.90
8953;DHT22;4511;50.890;8.054;2023-06-01T10:31:38;24.50;99.90
8953;DHT22;4511;50.890;8.054;2023-06-01T10:34:07;24.50;99.90
8953;DHT22;4511;50.890;8.054;2023-06-01T10:37:09;24.80;99.90
8953;DHT22;4511;50.890;8.054;2023-06-01T10:39:37;24.70;99.90
8953;DHT22;4511;50.890;8.054;2023-06-01T10:42:34;25.00;99.90
8953;DHT22;4511;50.890;8.054;2023-06-01T10:45:01;24.40;99.90
8953;DHT22;4511;50.890;8.054;2023-06-01T10:47:47;24.90;99.90
8953;DHT22;4511;50.890;8.054;2023-06-01T10:50:15;24.90;99.90
8953;DHT22;4511;50.890;8.054;2023-06-01T10:52:43;25.10;99.90
8953;DHT22;4511;50.890;8.054;2023-06-01T10:55:26;25.50;99.90
8953;DHT22;4511;50.890;8.054;2023-06-01T10:58:21;25.40;99.90
8953;DHT22;4511;50.890;8.054;2023-06-01T11:00:50;25.30;99.90
8953;DHT22;4511;50.890;8.054;2023-06-01T11:03:42;25.20;99.90
8953;DHT22;4511;50.890;8.054;2023-06-01T11:06:23;25.60;99.90
8953;DHT22;4511;50.890;8.054;2023-06-01T11:08:53;25.40;99.90
8953;DHT22;4511;50.890;8.054;2023-06-01T11:11:20;25.80;99.90
8953;DHT22;4511;50.890;8.054;2023-06-01T11:14:07;26.10;99.90
8953;DHT22;4511;50.890;8.054;2023-06-01T11:16:35;26.10;99.90
8953;DHT22;4511;50.890;8.054;2023-06-01T11:19:04;26.50;99.90
8953;DHT22;4511;50.890;8.054;2023-06-01T11:21:33;26.30;99.90
8953;DHT22;4511;50.890;8.054;2023-06-01T11:24:05;26.00;99.90
8953;DHT22;4511;50.890;8.054;2023-06-01T11:26:35;26.10;99.90
8953;DHT22;4511;50.890;8.054;2023-06-01T11:29:22;26.20;99.90
8953;DHT22;4511;50.890;8.054;2023-06-01T11:31:52;26.40;99.90
8953;DHT22;4511;50.890;8.054;2023-06-01T11:34:30;26.60;99.90
8953;DHT22;4511;50.890;8.054;2023-06-01T11:36:57;26.40;99.90
8953;DHT22;4511;50.890;8.054;2023-06-01T11:39:26;26.40;99.90
8953;DHT22;4511;50.890;8.054;2023-06-01T11:42:04;26.40;99.90
8953;DHT22;4511;50.890;8.054;2023-06-01T11:44:32;26.60;99.90
8953;DHT22;4511;50.890;8.054;2023-06-01T11:46:59;26.60;99.90
8953;DHT22;4511;50.890;8.054;2023-06-01T11:49:28;26.60;99.90
8953;DHT22;4511;50.890;8.054;2023-06-01T11:51:55;26.80;99.90
8953;DHT22;4511;50.890;8.054;2023-06-01T11:54:27;26.80;99.90
8953;DHT22;4511;50.890;8.054;2023-06-01T11:56:55;26.70;99.90
8953;DHT22;4511;50.890;8.054;2023-06-01T11:59:22;27.20;99.90
8953;DHT22;4511;50.890;8.054;2023-06-01T12:01:50;27.20;99.90
8953;DHT22;4511;50.890;8.054;2023-06-01T12:04:22;27.00;99.90
8953;DHT22;4511;50.890;8.054;2023-06-01T12:07:04;27.40;99.90
8953;DHT22;4511;50.890;8.054;2023-06-01T12:09:35;27.60;99.90
8953;DHT22;4511;50.890;8.054;2023-06-01T12:12:05;27.60;99.90
8953;DHT22;4511;50.890;8.054;2023-06-01T12:14:33;27.70;99.90
8953;DHT22;4511;50.890;8.054;2023-06-01T12:17:00;27.60;99.90
8953;DHT22;4511;50.890;8.054;2023-06-01T12:19:28;28.00;99.90
8953;DHT22;4511;50.890;8.054;2023-06-01T12:21:59;28.50;99.90
8953;DHT22;4511;50.890;8.054;2023-06-01T12:24:26;28.20;99.90
8953;DHT22;4511;50.890;8.054;2023-06-01T12:26:54;28.20;99.90
8953;DHT22;4511;50.890;8.054;2023-06-01T12:29:37;28.10;99.90
8953;DHT22;4511;50.890;8.054;2023-06-01T12:32:05;27.60;99.90
8953;DHT22;4511;50.890;8.054;2023-06-01T12:34:32;27.70;99.90
8953;DHT22;4511;50.890;8.054;2023-06-01T12:37:10;27.30;99.90
8953;DHT22;4511;50.890;8.054;2023-06-01T12:39:38;27.50;99.90
8953;DHT22;4511;50.890;8.054;2023-06-01T12:42:08;27.20;99.90
8953;DHT22;4511;50.890;8.054;2023-06-01T12:44:36;27.30;99.90
8953;DHT22;4511;50.890;8.054;2023-06-01T12:47:05;28.00;99.90
8953;DHT22;4511;50.890;8.054;2023-06-01T12:49:33;28.00;99.90
8953;DHT22;4511;50.890;8.054;2023-06-01T12:52:01;27.70;99.90
8953;DHT22;4511;50.890;8.054;2023-06-01T12:54:28;27.00;99.90
8953;DHT22;4511;50.890;8.054;2023-06-01T12:56:55;27.80;99.90
8953;DHT22;4511;50.890;8.054;2023-06-01T12:59:22;28.70;99.90
8953;DHT22;4511;50.890;8.054;2023-06-01T13:01:49;29.20;99.90
8953;DHT22;4511;50.890;8.054;2023-06-01T13:04:15;28.80;99.90
8953;DHT22;4511;50.890;8.054;2023-06-01T13:06:42;28.20;99.90
8953;DHT22;4511;50.890;8.054;2023-06-01T13:09:11;28.60;99.90
8953;DHT22;4511;50.890;8.054;2023-06-01T13:11:38;29.10;99.90
8953;DHT22;4511;50.890;8.054;2023-06-01T13:14:05;29.70;99.90
8953;DHT22;4511;50.890;8.054;2023-06-01T13:16:32;29.70;99.90
8953;DHT22;4511;50.890;8.054;2023-06-01T13:18:59;29.30;99.90
8953;DHT22;4511;50.890;8.054;2023-06-01T13:21:25;29.20;99.90
8953;DHT22;4511;50.890;8.054;2023-06-01T13:23:52;29.00;99.90
8953;DHT22;4511;50.890;8.054;2023-06-01T13:26:21;28.80;99.90
8953;DHT22;4511;50.890;8.054;2023-06-01T13:28:50;28.50;99.90
8953;DHT22;4511;50.890;8.054;2023-06-01T13:31:18;28.60;99.90
8953;DHT22;4511;50.890;8.054;2023-06-01T13:33:45;29.10;99.90
8953;DHT22;4511;50.890;8.054;2023-06-01T13:36:11;29.70;99.90
8953;DHT22;4511;50.890;8.054;2023-06-01T13:38:38;30.10;99.90
8953;DHT22;4511;50.890;8.054;2023-06-01T13:41:05;30.90;99.90
8953;DHT22;4511;50.890;8.054;2023-06-01T13:43:34;30.60;99.90
8953;DHT22;4511;50.890;8.054;2023-06-01T13:46:03;30.20;99.90
8953;DHT22;4511;50.890;8.054;2023-06-01T13:48:30;30.80;99.90
8953;DHT22;4511;50.890;8.054;2023-06-01T13:50:57;30.50;99.90
8953;DHT22;4511;50.890;8.054;2023-06-01T13:53:23;29.80;99.90
8953;DHT22;4511;50.890;8.054;2023-06-01T13:55:50;29.70;99.90
8953;DHT22;4511;50.890;8.054;2023-06-01T13:58:17;29.60;99.90
8953;DHT22;4511;50.890;8.054;2023-06-01T14:00:45;29.90;99.90
8953;DHT22;4511;50.890;8.054;2023-06-01T14:03:12;29.70;99.90
8953;DHT22;4511;50.890;8.054;2023-06-01T14:05:39;30.80;99.90
8953;DHT22;4511;50.890;8.054;2023-06-01T14:08:06;31.40;99.90
8953;DHT22;4511;50.890;8.054;2023-06-01T14:10:33;31.20;99.90
8953;DHT22;4511;50.890;8.054;2023-06-01T14:13:00;30.90;99.90
8953;DHT22;4511;50.890;8.054;2023-06-01T14:15:27;30.80;99.90
8953;DHT22;4511;50.890;8.054;2023-06-01T14:17:55;31.30;99.90
8953;DHT22;4511;50.890;8.054;2023-06-01T14:20:22;31.00;99.90
8953;DHT22;4511;50.890;8.054;2023-06-01T14:22:49;31.10;99.90
8953;DHT22;4511;50.890;8.054;2023-06-01T14:25:16;31.10;99.90
8953;DHT22;4511;50.890;8.054;2023-06-01T14:27:43;31.50;99.90
8953;DHT22;4511;50.890;8.054;2023-06-01T14:30:10;31.40;99.90
8953;DHT22;4511;50.890;8.054;2023-06-01T14:32:37;31.70;99.90
8953;DHT22;4511;50.890;8.054;2023-06-01T14:35:06;31.70;99.90
8953;DHT22;4511;50.890;8.054;2023-06-01T14:37:33;31.40;99.90
8953;DHT22;4511;50.890;8.054;2023-06-01T14:40:00;31.20;99.90
8953;DHT22;4511;50.890;8.054;2023-06-01T14:42:27;31.30;99.90
8953;DHT22;4511;50.890;8.054;2023-06-01T14:44:53;31.10;99.90
8953;DHT22;4511;50.890;8.054;2023-06-01T14:47:20;31.30;99.90
8953;DHT22;4511;50.890;8.054;2023-06-01T14:49:47;31.80;99.90
8953;DHT22;4511;50.890;8.054;2023-06-01T14:52:15;31.20;99.90
8953;DHT22;4511;50.890;8.054;2023-06-01T14:54:42;31.40;99.90
8953;DHT22;4511;50.890;8.054;2023-06-01T14:57:10;31.40;99.90
8953;DHT22;4511;50.890;8.054;2023-06-01T14:59:37;30.80;99.90
8953;DHT22;4511;50.890;8.054;2023-06-01T15:02:05;30.80;99.90
8953;DHT22;4511;50.890;8.054;2023-06-01T15:04:32;31.00;99.90
8953;DHT22;4511;50.890;8.054;2023-06-01T15:07:00;31.00;99.90
8953;DHT22;4511;50.890;8.054;2023-06-01T15:09:28;30.50;99.90
8953;DHT22;4511;50.890;8.054;2023-06-01T15:11:55;30.70;99.90
8953;DHT22;4511;50.890;8.054;2023-06-01T15:14:22;30.10;99.90
8953;DHT22;4511;50.890;8.054;2023-06-01T15:16:49;30.00;99.90
8953;DHT22;4511;50.890;8.054;2023-06-01T15:19:15;29.50;99.90
8953;DHT22;4511;50.890;8.054;2023-06-01T15:21:42;28.90;99.90
8953;DHT22;4511;50.890;8.054;2023-06-01T15:24:09;28.50;99.90
8953;DHT22;4511;50.890;8.054;2023-06-01T15:26:37;28.30;99.90
8953;DHT22;4511;50.890;8.054;2023-06-01T15:29:04;28.50;99.90
8953;DHT22;4511;50.890;8.054;2023-06-01T15:31:31;28.60;99.90
8953;DHT22;4511;50.890;8.054;2023-06-01T15:33:58;29.30;99.90
8953;DHT22;4511;50.890;8.054;2023-06-01T15:36:25;29.20;99.90
8953;DHT22;4511;50.890;8.054;2023-06-01T15:38:51;29.10;99.90
8953;DHT22;4511;50.890;8.054;2023-06-01T15:41:18;29.10;99.90
8953;DHT22;4511;50.890;8.054;2023-06-01T15:43:46;28.90;99.90
8953;DHT22;4511;50.890;8.054;2023-06-01T15:46:13;28.70;99.90
8953;DHT22;4511;50.890;8.054;2023-06-01T15:48:42;29.00;99.90
8953;DHT22;4511;50.890;8.054;2023-06-01T15:51:09;29.10;99.90
8953;DHT22;4511;50.890;8.054;2023-06-01T15:53:36;28.40;99.90
8953;DHT22;4511;50.890;8.054;2023-06-01T15:56:03;28.30;99.90
8953;DHT22;4511;50.890;8.054;2023-06-01T15:58:29;28.10;99.90
8953;DHT22;4511;50.890;8.054;2023-06-01T16:00:58;28.40;99.90
8953;DHT22;4511;50.890;8.054;2023-06-01T16:03:25;28.80;99.90
8953;DHT22;4511;50.890;8.054;2023-06-01T16:05:52;28.80;99.90
8953;DHT22;4511;50.890;8.054;2023-06-01T16:08:19;29.40;99.90
8953;DHT22;4511;50.890;8.054;2023-06-01T16:10:46;29.50;99.90
8953;DHT22;4511;50.890;8.054;2023-06-01T16:13:12;29.10;99.90
8953;DHT22;4511;50.890;8.054;2023-06-01T16:15:39;28.70;99.90
8953;DHT22;4511;50.890;8.054;2023-06-01T16:18:07;28.00;99.90